createdAt,value
2023-03-22T00:00:06.643Z,0
2023-03-22T00:01:15.821Z,0
2023-03-22T00:02:24.005Z,0
2023-03-22T00:03:32.184Z,0
2023-03-22T00:04:41.366Z,0
2023-03-22T00:05:50.527Z,0
2023-03-22T00:06:59.719Z,0
2023-03-22T00:08:08.887Z,0
2023-03-22T00:09:18.178Z,0
2023-03-22T00:10:27.222Z,0
2023-03-22T00:11:36.517Z,0
2023-03-22T00:12:45.661Z,0
2023-03-22T00:13:54.739Z,0
2023-03-22T00:15:04.029Z,0
2023-03-22T00:16:13.085Z,0
2023-03-22T00:17:22.256Z,0
2023-03-22T00:18:30.438Z,0
2023-03-22T00:19:39.650Z,0
2023-03-22T00:20:48.798Z,0
2023-03-22T00:21:58.109Z,0
2023-03-22T00:23:07.234Z,0
2023-03-22T00:24:16.308Z,0
2023-03-22T00:25:25.466Z,0
2023-03-22T00:26:33.667Z,0
2023-03-22T00:27:41.860Z,0
2023-03-22T00:28:50.059Z,0
2023-03-22T00:29:58.245Z,0
2023-03-22T00:31:07.503Z,0
2023-03-22T00:32:16.616Z,0
2023-03-22T00:33:25.771Z,0
2023-03-22T00:34:34.961Z,0
2023-03-22T00:35:44.114Z,0
2023-03-22T00:36:53.427Z,0
2023-03-22T00:38:02.513Z,0
2023-03-22T00:39:11.679Z,0
2023-03-22T00:40:20.793Z,0
2023-03-22T00:41:30.061Z,0
2023-03-22T00:42:39.190Z,0
2023-03-22T00:43:48.387Z,0
2023-03-22T00:44:56.503Z,0
2023-03-22T00:46:05.675Z,0
2023-03-22T00:47:14.846Z,0
2023-03-22T00:48:24.083Z,0
2023-03-22T00:49:33.200Z,0
2023-03-22T00:50:42.552Z,0
2023-03-22T00:51:51.661Z,0
2023-03-22T00:52:59.739Z,0
2023-03-22T00:54:07.929Z,0
2023-03-22T00:55:17.113Z,0
2023-03-22T00:56:26.312Z,0
2023-03-22T00:57:35.448Z,0
2023-03-22T00:58:44.633Z,0
2023-03-22T00:59:53.788Z,0
2023-03-22T01:01:02.953Z,0
2023-03-22T01:02:12.136Z,0
2023-03-22T01:03:21.292Z,0
2023-03-22T01:04:30.504Z,0
2023-03-22T01:05:39.674Z,0
2023-03-22T01:06:48.827Z,0
2023-03-22T01:07:58.016Z,0
2023-03-22T01:09:06.235Z,0
2023-03-22T01:10:15.342Z,0
2023-03-22T01:11:24.636Z,0
2023-03-22T01:12:33.698Z,0
2023-03-22T01:13:42.902Z,0
2023-03-22T01:14:52.099Z,0
2023-03-22T01:16:01.243Z,0
2023-03-22T01:17:09.402Z,0
2023-03-22T01:18:17.593Z,0
2023-03-22T01:19:25.874Z,0
2023-03-22T01:20:34.082Z,0
2023-03-22T01:21:43.215Z,0
2023-03-22T01:22:52.320Z,0
2023-03-22T01:24:01.494Z,0
2023-03-22T01:25:10.660Z,0
2023-03-22T01:26:19.992Z,0
2023-03-22T01:27:29.009Z,0
2023-03-22T01:28:38.214Z,0
2023-03-22T01:29:47.344Z,0
2023-03-22T01:30:56.614Z,0
2023-03-22T01:32:05.729Z,0
2023-03-22T01:33:14.878Z,0
2023-03-22T01:34:24.139Z,0
2023-03-22T01:35:32.272Z,0
2023-03-22T01:36:41.457Z,0
2023-03-22T01:37:49.599Z,0
2023-03-22T01:38:58.890Z,0
2023-03-22T01:40:07.976Z,0
2023-03-22T01:41:17.218Z,0
2023-03-22T01:42:26.289Z,0
2023-03-22T01:43:34.540Z,0
2023-03-22T01:44:42.766Z,0
2023-03-22T01:45:51.918Z,0
2023-03-22T01:47:00.083Z,0
2023-03-22T01:48:08.251Z,0
2023-03-22T01:49:17.400Z,0
2023-03-22T01:50:26.634Z,0
2023-03-22T01:51:35.843Z,0
2023-03-22T01:52:44.990Z,0
2023-03-22T01:53:54.154Z,0
2023-03-22T01:55:03.277Z,0
2023-03-22T01:56:12.535Z,0
2023-03-22T01:57:21.641Z,0
2023-03-22T01:58:30.812Z,0
2023-03-22T01:59:39.952Z,0
2023-03-22T02:00:49.180Z,0
2023-03-22T02:01:58.306Z,0
2023-03-22T02:03:06.484Z,0
2023-03-22T02:05:24.853Z,0
2023-03-22T02:06:34.001Z,0
2023-03-22T02:07:43.278Z,0
2023-03-22T02:08:52.365Z,0
2023-03-22T02:10:01.533Z,0
2023-03-22T02:11:10.807Z,0
2023-03-22T02:12:18.908Z,0
2023-03-22T02:13:27.101Z,0
2023-03-22T02:15:45.423Z,0
2023-03-22T02:16:54.589Z,0
2023-03-22T02:18:03.765Z,0
2023-03-22T02:19:12.939Z,0
2023-03-22T02:20:22.112Z,0
2023-03-22T02:21:31.291Z,0
2023-03-22T02:22:40.463Z,0
2023-03-22T02:23:49.621Z,0
2023-03-22T02:24:58.807Z,0
2023-03-22T02:26:07.964Z,0
2023-03-22T02:27:17.152Z,0
2023-03-22T02:28:25.342Z,0
2023-03-22T02:29:34.514Z,0
2023-03-22T02:30:43.676Z,0
2023-03-22T02:31:52.916Z,0
2023-03-22T02:33:02.035Z,0
2023-03-22T02:34:11.204Z,0
2023-03-22T02:36:29.531Z,0
2023-03-22T02:37:38.709Z,0
2023-03-22T02:38:46.945Z,0
2023-03-22T02:39:55.178Z,0
2023-03-22T02:41:03.402Z,0
2023-03-22T02:42:12.619Z,0
2023-03-22T02:43:20.716Z,0
2023-03-22T02:44:28.955Z,0
2023-03-22T02:45:38.018Z,0
2023-03-22T02:46:47.193Z,0
2023-03-22T02:47:56.367Z,0
2023-03-22T02:49:05.550Z,0
2023-03-22T02:50:14.717Z,0
2023-03-22T02:51:23.890Z,0
2023-03-22T02:52:33.093Z,0
2023-03-22T02:53:42.328Z,0
2023-03-22T02:54:51.406Z,0
2023-03-22T02:56:00.600Z,0
2023-03-22T02:57:09.738Z,0
2023-03-22T02:58:18.957Z,0
2023-03-22T02:59:27.096Z,0
2023-03-22T03:00:36.453Z,0
2023-03-22T03:01:45.446Z,0
2023-03-22T03:02:54.603Z,0
2023-03-22T03:04:03.791Z,0
2023-03-22T03:05:12.958Z,0
2023-03-22T03:06:22.169Z,0
2023-03-22T03:07:30.330Z,0
2023-03-22T03:08:38.520Z,0
2023-03-22T03:09:46.721Z,0
2023-03-22T03:10:54.963Z,0
2023-03-22T03:12:04.236Z,0
2023-03-22T03:13:13.283Z,0
2023-03-22T03:14:22.420Z,0
2023-03-22T03:15:31.659Z,0
2023-03-22T03:16:40.775Z,0
2023-03-22T03:17:49.941Z,0
2023-03-22T03:18:59.123Z,0
2023-03-22T03:20:08.309Z,0
2023-03-22T03:22:26.726Z,0
2023-03-22T03:23:35.864Z,0
2023-03-22T03:24:45.049Z,0
2023-03-22T03:25:53.200Z,0
2023-03-22T03:27:02.549Z,0
2023-03-22T03:28:11.502Z,0
2023-03-22T03:29:20.724Z,0
2023-03-22T03:30:29.998Z,0
2023-03-22T03:31:39.062Z,0
2023-03-22T03:32:48.211Z,0
2023-03-22T03:33:57.475Z,0
2023-03-22T03:35:05.552Z,0
2023-03-22T03:36:13.882Z,0
2023-03-22T03:37:22.017Z,0
2023-03-22T03:38:30.143Z,0
2023-03-22T03:39:39.406Z,0
2023-03-22T03:40:48.473Z,0
2023-03-22T03:41:57.642Z,0
2023-03-22T03:43:06.846Z,0
2023-03-22T03:44:16.012Z,0
2023-03-22T03:45:25.204Z,0
2023-03-22T03:46:34.404Z,0
2023-03-22T03:47:43.557Z,0
2023-03-22T03:48:52.730Z,0
2023-03-22T03:50:01.995Z,0
2023-03-22T03:51:11.053Z,0
2023-03-22T03:52:20.290Z,0
2023-03-22T03:54:37.580Z,0
2023-03-22T03:55:46.758Z,0
2023-03-22T03:56:55.945Z,0
2023-03-22T03:58:05.085Z,0
2023-03-22T03:59:14.305Z,0
2023-03-22T04:00:23.441Z,0
2023-03-22T04:01:32.605Z,0
2023-03-22T04:02:40.792Z,0
2023-03-22T04:03:48.971Z,0
2023-03-22T04:04:58.167Z,0
2023-03-22T04:06:06.402Z,0
2023-03-22T04:07:14.540Z,0
2023-03-22T04:08:23.755Z,0
2023-03-22T04:09:32.875Z,0
2023-03-22T04:10:42.057Z,0
2023-03-22T04:11:51.275Z,0
2023-03-22T04:13:00.400Z,0
2023-03-22T04:14:09.625Z,0
2023-03-22T04:15:18.748Z,0
2023-03-22T04:16:27.912Z,0
2023-03-22T04:17:37.110Z,0
2023-03-22T04:18:46.275Z,0
2023-03-22T04:19:55.429Z,0
2023-03-22T04:21:04.615Z,0
2023-03-22T04:22:12.851Z,0
2023-03-22T04:23:21.982Z,0
2023-03-22T04:24:31.139Z,0
2023-03-22T04:25:40.311Z,0
2023-03-22T04:26:49.548Z,0
2023-03-22T04:27:58.722Z,0
2023-03-22T04:29:07.824Z,0
2023-03-22T04:30:16.026Z,0
2023-03-22T04:31:24.202Z,0
2023-03-22T04:32:32.405Z,0
2023-03-22T04:33:40.600Z,0
2023-03-22T04:34:49.767Z,0
2023-03-22T04:35:58.941Z,0
2023-03-22T04:37:08.102Z,0
2023-03-22T04:38:17.281Z,0
2023-03-22T04:39:26.477Z,0
2023-03-22T04:40:35.698Z,0
2023-03-22T04:41:44.790Z,0
2023-03-22T04:42:54.095Z,0
2023-03-22T04:44:03.140Z,0
2023-03-22T04:45:12.339Z,0
2023-03-22T04:46:21.483Z,0
2023-03-22T04:47:30.713Z,0
2023-03-22T04:48:38.969Z,0
2023-03-22T04:49:48.081Z,0
2023-03-22T04:50:57.377Z,0
2023-03-22T04:52:06.511Z,0
2023-03-22T04:53:15.564Z,0
2023-03-22T04:54:24.805Z,0
2023-03-22T04:55:33.960Z,0
2023-03-22T04:56:42.094Z,0
2023-03-22T04:57:50.289Z,0
2023-03-22T05:00:07.653Z,0
2023-03-22T05:01:15.824Z,0
2023-03-22T05:02:24.011Z,0
2023-03-22T05:03:33.189Z,0
2023-03-22T05:04:42.362Z,0
2023-03-22T05:05:51.533Z,0
2023-03-22T05:07:00.730Z,0
2023-03-22T05:08:09.868Z,0
2023-03-22T05:09:19.061Z,0
2023-03-22T05:10:28.324Z,0
2023-03-22T05:11:37.401Z,0
2023-03-22T05:12:46.572Z,0
2023-03-22T05:13:55.811Z,0
2023-03-22T05:15:05.022Z,0
2023-03-22T05:16:14.084Z,0
2023-03-22T05:17:23.328Z,0
2023-03-22T05:18:31.435Z,0
2023-03-22T05:19:40.661Z,0
2023-03-22T05:20:49.813Z,0
2023-03-22T05:21:58.992Z,0
2023-03-22T05:23:08.158Z,0
2023-03-22T05:24:17.308Z,0
2023-03-22T05:25:26.488Z,0
2023-03-22T05:26:35.647Z,0
2023-03-22T05:27:44.868Z,5
2023-03-22T05:28:53.041Z,5
2023-03-22T05:30:02.207Z,5
2023-03-22T05:31:10.384Z,5
2023-03-22T05:32:18.564Z,5
2023-03-22T05:33:26.808Z,5
2023-03-22T05:34:34.953Z,5
2023-03-22T05:35:44.199Z,11
2023-03-22T05:36:53.476Z,11
2023-03-22T05:38:02.531Z,11
2023-03-22T05:39:11.670Z,11
2023-03-22T05:40:20.825Z,16
2023-03-22T05:41:30.018Z,16
2023-03-22T05:42:39.173Z,16
2023-03-22T05:43:48.435Z,16
2023-03-22T05:44:57.522Z,22
2023-03-22T05:46:06.712Z,22
2023-03-22T05:47:15.858Z,22
2023-03-22T05:48:25.026Z,28
2023-03-22T05:49:34.233Z,28
2023-03-22T05:50:42.393Z,28
2023-03-22T05:51:51.576Z,28
2023-03-22T05:53:00.757Z,28
2023-03-22T05:54:09.910Z,28
2023-03-22T05:55:19.090Z,28
2023-03-22T05:56:28.262Z,28
2023-03-22T05:58:45.680Z,33
2023-03-22T05:59:53.814Z,28
2023-03-22T06:01:01.999Z,28
2023-03-22T06:02:10.195Z,28
2023-03-22T06:03:18.412Z,28
2023-03-22T06:04:27.600Z,28
2023-03-22T06:05:36.752Z,28
2023-03-22T06:06:46.123Z,33
2023-03-22T06:07:55.082Z,33
2023-03-22T06:09:04.256Z,33
2023-03-22T06:10:13.444Z,33
2023-03-22T06:11:22.689Z,33
2023-03-22T06:12:31.820Z,33
2023-03-22T06:13:40.982Z,39
2023-03-22T06:14:50.108Z,39
2023-03-22T06:15:59.285Z,39
2023-03-22T06:17:08.481Z,39
2023-03-22T06:18:16.649Z,45
2023-03-22T06:19:25.844Z,50
2023-03-22T06:20:34.983Z,50
2023-03-22T06:21:44.153Z,56
2023-03-22T06:22:53.329Z,56
2023-03-22T06:24:02.498Z,61
2023-03-22T06:25:11.701Z,67
2023-03-22T06:26:19.888Z,67
2023-03-22T06:27:28.095Z,73
2023-03-22T06:28:36.313Z,73
2023-03-22T06:29:44.445Z,73
2023-03-22T06:30:54.019Z,78
2023-03-22T06:32:02.843Z,78
2023-03-22T06:33:11.959Z,78
2023-03-22T06:34:21.167Z,84
2023-03-22T06:35:30.304Z,84
2023-03-22T06:36:39.475Z,90
2023-03-22T06:37:48.645Z,90
2023-03-22T06:38:57.850Z,90
2023-03-22T06:40:07.015Z,95
2023-03-22T06:41:16.176Z,95
2023-03-22T06:42:25.353Z,95
2023-03-22T06:43:34.496Z,95
2023-03-22T06:44:42.776Z,95
2023-03-22T06:45:51.916Z,95
2023-03-22T06:47:01.100Z,95
2023-03-22T06:48:10.217Z,95
2023-03-22T06:49:19.414Z,95
2023-03-22T06:50:28.571Z,95
2023-03-22T06:51:37.756Z,95
2023-03-22T06:52:45.915Z,101
2023-03-22T06:53:54.140Z,101
2023-03-22T06:55:03.295Z,101
2023-03-22T06:56:12.445Z,95
2023-03-22T06:57:20.702Z,84
2023-03-22T06:58:28.824Z,90
2023-03-22T06:59:37.999Z,78
2023-03-22T07:00:47.189Z,73
2023-03-22T07:01:56.362Z,73
2023-03-22T07:03:05.516Z,73
2023-03-22T07:04:14.687Z,67
2023-03-22T07:05:23.922Z,67
2023-03-22T07:06:33.058Z,67
2023-03-22T07:07:42.242Z,67
2023-03-22T07:08:51.467Z,73
2023-03-22T07:10:00.566Z,73
2023-03-22T07:11:09.729Z,73
2023-03-22T07:12:18.925Z,73
2023-03-22T07:13:27.105Z,73
2023-03-22T07:14:36.296Z,73
2023-03-22T07:15:45.451Z,73
2023-03-22T07:16:54.607Z,78
2023-03-22T07:18:03.823Z,78
2023-03-22T07:19:12.943Z,78
2023-03-22T07:20:22.129Z,84
2023-03-22T07:21:30.355Z,84
2023-03-22T07:22:38.504Z,78
2023-03-22T07:23:47.699Z,78
2023-03-22T07:24:56.875Z,78
2023-03-22T07:26:06.061Z,84
2023-03-22T07:27:15.199Z,84
2023-03-22T07:28:24.433Z,90
2023-03-22T07:29:33.536Z,90
2023-03-22T07:30:42.775Z,101
2023-03-22T07:31:51.887Z,106
2023-03-22T07:33:01.085Z,118
2023-03-22T07:34:10.224Z,129
2023-03-22T07:35:19.396Z,140
2023-03-22T07:36:28.638Z,151
2023-03-22T07:37:36.802Z,163
2023-03-22T07:38:45.955Z,185
2023-03-22T07:39:55.120Z,213
2023-03-22T07:41:04.344Z,219
2023-03-22T07:42:13.467Z,208
2023-03-22T07:43:22.638Z,202
2023-03-22T07:44:31.822Z,191
2023-03-22T07:45:40.005Z,191
2023-03-22T07:46:48.218Z,191
2023-03-22T07:47:56.389Z,208
2023-03-22T07:49:04.566Z,202
2023-03-22T07:50:13.754Z,168
2023-03-22T07:51:22.910Z,157
2023-03-22T07:52:32.077Z,163
2023-03-22T07:53:40.275Z,163
2023-03-22T07:54:48.465Z,180
2023-03-22T07:55:57.642Z,196
2023-03-22T07:58:15.989Z,213
2023-03-22T07:59:25.150Z,196
2023-03-22T08:00:34.452Z,174
2023-03-22T08:01:43.499Z,180
2023-03-22T08:02:52.734Z,196
2023-03-22T08:04:01.859Z,185
2023-03-22T08:05:11.091Z,185
2023-03-22T08:06:20.192Z,180
2023-03-22T08:07:29.536Z,180
2023-03-22T08:08:38.693Z,180
2023-03-22T08:09:46.734Z,174
2023-03-22T08:10:56.062Z,180
2023-03-22T08:12:05.141Z,185
2023-03-22T08:13:14.250Z,191
2023-03-22T08:14:23.404Z,191
2023-03-22T08:15:32.603Z,180
2023-03-22T08:16:41.950Z,168
2023-03-22T08:17:51.063Z,180
2023-03-22T08:18:59.213Z,196
2023-03-22T08:20:07.382Z,202
2023-03-22T08:21:15.526Z,202
2023-03-22T08:22:23.703Z,208
2023-03-22T08:23:33.214Z,225
2023-03-22T08:24:42.038Z,219
2023-03-22T08:25:51.305Z,202
2023-03-22T08:27:00.393Z,202
2023-03-22T08:28:09.589Z,196
2023-03-22T08:29:18.785Z,196
2023-03-22T08:30:27.973Z,202
2023-03-22T08:31:37.324Z,202
2023-03-22T08:32:46.352Z,202
2023-03-22T08:33:55.579Z,208
2023-03-22T08:35:04.589Z,208
2023-03-22T08:36:13.852Z,196
2023-03-22T08:37:22.015Z,196
2023-03-22T08:38:31.211Z,202
2023-03-22T08:39:40.328Z,208
2023-03-22T08:40:49.585Z,241
2023-03-22T08:41:58.815Z,213
2023-03-22T08:43:07.828Z,202
2023-03-22T08:44:16.981Z,191
2023-03-22T08:45:25.203Z,180
2023-03-22T08:46:33.366Z,180
2023-03-22T08:47:41.631Z,191
2023-03-22T08:48:49.905Z,191
2023-03-22T08:49:59.102Z,180
2023-03-22T08:51:08.092Z,174
2023-03-22T08:52:17.282Z,157
2023-03-22T08:53:26.481Z,151
2023-03-22T08:54:35.664Z,151
2023-03-22T08:55:44.773Z,157
2023-03-22T08:56:54.076Z,163
2023-03-22T08:58:03.124Z,196
2023-03-22T08:59:12.399Z,202
2023-03-22T09:00:21.533Z,213
2023-03-22T09:01:30.751Z,219
2023-03-22T09:02:39.910Z,213
2023-03-22T09:03:48.140Z,241
2023-03-22T09:04:57.374Z,225
2023-03-22T09:06:06.342Z,258
2023-03-22T09:07:15.575Z,258
2023-03-22T09:08:24.803Z,208
2023-03-22T09:09:33.996Z,219
2023-03-22T09:10:43.062Z,247
2023-03-22T09:11:51.396Z,292
2023-03-22T09:12:59.410Z,315
2023-03-22T09:15:16.806Z,348
2023-03-22T09:16:24.973Z,292
2023-03-22T09:18:42.320Z,264
2023-03-22T09:19:50.526Z,208
2023-03-22T09:20:59.927Z,191
2023-03-22T09:23:18.106Z,168
2023-03-22T09:24:27.238Z,151
2023-03-22T09:25:36.494Z,140
2023-03-22T09:26:45.672Z,140
2023-03-22T09:27:54.888Z,140
2023-03-22T09:29:03.998Z,157
2023-03-22T09:30:13.162Z,168
2023-03-22T09:31:22.283Z,196
2023-03-22T09:32:31.410Z,196
2023-03-22T09:33:40.713Z,213
2023-03-22T09:34:49.006Z,236
2023-03-22T09:35:58.105Z,236
2023-03-22T09:37:07.121Z,241
2023-03-22T09:38:16.382Z,247
2023-03-22T09:39:25.491Z,247
2023-03-22T09:40:34.643Z,241
2023-03-22T09:41:43.871Z,253
2023-03-22T09:42:53.002Z,264
2023-03-22T09:44:02.296Z,258
2023-03-22T09:45:11.331Z,270
2023-03-22T09:46:20.676Z,281
2023-03-22T09:47:29.779Z,281
2023-03-22T09:48:38.990Z,258
2023-03-22T09:49:47.059Z,270
2023-03-22T09:50:56.211Z,281
2023-03-22T09:52:05.396Z,275
2023-03-22T09:53:14.545Z,286
2023-03-22T09:54:23.736Z,382
2023-03-22T09:55:33.046Z,320
2023-03-22T09:56:42.205Z,247
2023-03-22T09:57:51.409Z,281
2023-03-22T09:59:00.452Z,337
2023-03-22T10:00:09.701Z,264
2023-03-22T10:01:18.856Z,320
2023-03-22T10:02:28.014Z,292
2023-03-22T10:03:37.180Z,281
2023-03-22T10:04:45.449Z,286
2023-03-22T10:05:54.447Z,281
2023-03-22T10:07:03.670Z,264
2023-03-22T10:08:11.928Z,275
2023-03-22T10:09:20.131Z,241
2023-03-22T10:10:28.201Z,219
2023-03-22T10:11:36.438Z,213
2023-03-22T10:12:45.653Z,219
2023-03-22T10:13:54.732Z,230
2023-03-22T10:15:03.919Z,253
2023-03-22T10:16:13.210Z,264
2023-03-22T10:17:22.362Z,264
2023-03-22T10:18:31.520Z,258
2023-03-22T10:19:40.757Z,247
2023-03-22T10:20:49.777Z,230
2023-03-22T10:21:59.069Z,230
2023-03-22T10:23:08.196Z,219
2023-03-22T10:24:17.331Z,202
2023-03-22T10:25:26.514Z,191
2023-03-22T10:26:34.813Z,174
2023-03-22T10:27:43.964Z,163
2023-03-22T10:28:53.107Z,163
2023-03-22T10:30:02.372Z,174
2023-03-22T10:31:11.430Z,168
2023-03-22T10:32:20.616Z,174
2023-03-22T10:33:29.822Z,185
2023-03-22T10:34:38.989Z,185
2023-03-22T10:35:48.193Z,196
2023-03-22T10:36:57.404Z,202
2023-03-22T10:38:06.535Z,219
2023-03-22T10:39:15.694Z,253
2023-03-22T10:40:24.873Z,298
2023-03-22T10:41:33.067Z,326
2023-03-22T10:42:42.080Z,331
2023-03-22T10:43:51.262Z,348
2023-03-22T10:45:00.413Z,376
2023-03-22T10:46:09.584Z,376
2023-03-22T10:47:18.861Z,360
2023-03-22T10:48:27.943Z,365
2023-03-22T10:49:36.141Z,343
2023-03-22T10:51:53.488Z,348
2023-03-22T10:54:11.820Z,348
2023-03-22T10:55:20.142Z,371
2023-03-22T10:56:28.455Z,382
2023-03-22T10:58:46.541Z,348
2023-03-22T10:59:55.806Z,343
2023-03-22T11:02:14.162Z,365
2023-03-22T11:03:23.231Z,433
2023-03-22T11:04:32.434Z,489
2023-03-22T11:05:41.789Z,433
2023-03-22T11:06:50.751Z,444
2023-03-22T11:07:59.933Z,405
2023-03-22T11:09:09.108Z,393
2023-03-22T11:10:17.334Z,376
2023-03-22T11:11:25.491Z,360
2023-03-22T11:12:34.666Z,326
2023-03-22T11:13:43.823Z,303
2023-03-22T11:14:53.016Z,331
2023-03-22T11:16:02.240Z,365
2023-03-22T11:17:11.453Z,388
2023-03-22T11:18:20.612Z,371
2023-03-22T11:19:29.836Z,337
2023-03-22T11:20:39.006Z,303
2023-03-22T11:21:48.123Z,292
2023-03-22T11:22:56.222Z,298
2023-03-22T11:24:04.590Z,281
2023-03-22T11:25:13.832Z,258
2023-03-22T11:26:22.894Z,258
2023-03-22T11:27:32.114Z,258
2023-03-22T11:28:41.211Z,247
2023-03-22T11:29:50.399Z,241
2023-03-22T11:30:59.599Z,241
2023-03-22T11:32:08.756Z,230
2023-03-22T11:33:17.942Z,236
2023-03-22T11:34:27.146Z,247
2023-03-22T11:35:36.326Z,236
2023-03-22T11:36:45.396Z,241
2023-03-22T11:37:54.632Z,253
2023-03-22T11:39:02.808Z,258
2023-03-22T11:41:21.168Z,258
2023-03-22T11:42:30.344Z,258
2023-03-22T11:43:39.434Z,258
2023-03-22T11:44:48.742Z,258
2023-03-22T11:45:57.843Z,253
2023-03-22T11:47:06.994Z,253
2023-03-22T11:48:15.231Z,236
2023-03-22T11:49:23.415Z,236
2023-03-22T11:50:32.569Z,241
2023-03-22T11:51:40.841Z,236
2023-03-22T11:52:48.826Z,236
2023-03-22T11:55:07.275Z,241
2023-03-22T11:56:16.341Z,236
2023-03-22T11:57:25.502Z,236
2023-03-22T11:58:34.753Z,236
2023-03-22T11:59:43.933Z,225
2023-03-22T12:00:53.179Z,225
2023-03-22T12:02:02.485Z,225
2023-03-22T12:03:11.574Z,225
2023-03-22T12:04:20.695Z,219
2023-03-22T12:05:29.857Z,213
2023-03-22T12:06:39.123Z,196
2023-03-22T12:07:47.179Z,191
2023-03-22T12:08:56.265Z,185
2023-03-22T12:10:05.582Z,180
2023-03-22T12:11:14.797Z,174
2023-03-22T12:12:23.742Z,168
2023-03-22T12:13:32.926Z,163
2023-03-22T12:14:42.083Z,163
2023-03-22T12:15:51.392Z,157
2023-03-22T12:17:00.434Z,157
2023-03-22T12:18:08.643Z,157
2023-03-22T12:19:17.797Z,157
2023-03-22T12:20:26.008Z,151
2023-03-22T12:21:35.160Z,157
2023-03-22T12:22:43.363Z,157
2023-03-22T12:23:51.564Z,157
2023-03-22T12:25:00.729Z,157
2023-03-22T12:26:09.902Z,157
2023-03-22T12:27:19.071Z,163
2023-03-22T12:28:28.238Z,174
2023-03-22T12:29:37.408Z,180
2023-03-22T12:30:46.581Z,180
2023-03-22T12:31:55.771Z,180
2023-03-22T12:33:04.941Z,174
2023-03-22T12:34:14.098Z,157
2023-03-22T12:35:23.289Z,151
2023-03-22T12:36:32.448Z,151
2023-03-22T12:37:41.634Z,146
2023-03-22T12:38:50.788Z,140
2023-03-22T12:41:08.146Z,123
2023-03-22T12:42:17.330Z,118
2023-03-22T12:43:26.491Z,118
2023-03-22T12:44:35.677Z,118
2023-03-22T12:45:44.861Z,118
2023-03-22T12:46:54.025Z,118
2023-03-22T12:48:03.195Z,118
2023-03-22T12:49:12.344Z,123
2023-03-22T12:50:21.526Z,123
2023-03-22T12:51:30.708Z,118
2023-03-22T12:52:39.877Z,123
2023-03-22T12:53:49.047Z,123
2023-03-22T12:54:57.355Z,123
2023-03-22T12:56:06.413Z,123
2023-03-22T12:57:15.580Z,118
2023-03-22T12:58:24.755Z,118
2023-03-22T12:59:33.922Z,118
2023-03-22T13:00:43.112Z,112
2023-03-22T13:01:51.287Z,112
2023-03-22T13:02:59.488Z,118
2023-03-22T13:04:07.674Z,129
2023-03-22T13:05:15.861Z,129
2023-03-22T13:06:25.035Z,123
2023-03-22T13:07:34.198Z,129
2023-03-22T13:08:43.370Z,135
2023-03-22T13:09:52.535Z,140
2023-03-22T13:11:00.730Z,146
2023-03-22T13:12:09.934Z,146
2023-03-22T13:13:19.089Z,157
2023-03-22T13:14:28.263Z,174
2023-03-22T13:15:37.431Z,196
2023-03-22T13:16:46.605Z,213
2023-03-22T13:17:55.771Z,219
2023-03-22T13:19:04.954Z,230
2023-03-22T13:20:14.110Z,247
2023-03-22T13:21:23.294Z,258
2023-03-22T13:22:32.455Z,281
2023-03-22T13:23:41.623Z,298
2023-03-22T13:24:50.806Z,315
2023-03-22T13:25:58.996Z,348
2023-03-22T13:27:08.170Z,354
2023-03-22T13:28:16.364Z,315
2023-03-22T13:29:24.538Z,360
2023-03-22T13:30:32.746Z,292
2023-03-22T13:31:40.924Z,275
2023-03-22T13:32:50.110Z,275
2023-03-22T13:33:59.281Z,264
2023-03-22T13:35:08.451Z,247
2023-03-22T13:36:17.604Z,225
2023-03-22T13:37:26.794Z,196
2023-03-22T13:38:35.975Z,185
2023-03-22T13:39:45.134Z,180
2023-03-22T13:40:54.321Z,185
2023-03-22T13:44:21.849Z,163
2023-03-22T13:45:30.013Z,157
2023-03-22T13:46:38.210Z,168
2023-03-22T13:47:47.398Z,208
2023-03-22T13:48:56.585Z,258
2023-03-22T13:50:05.744Z,264
2023-03-22T13:51:14.900Z,236
2023-03-22T13:52:24.081Z,213
2023-03-22T13:53:33.251Z,213
2023-03-22T13:54:42.410Z,225
2023-03-22T13:55:51.616Z,230
2023-03-22T13:57:00.776Z,236
2023-03-22T13:58:08.977Z,213
2023-03-22T13:59:17.154Z,196
2023-03-22T14:00:26.323Z,191
2023-03-22T14:01:35.502Z,196
2023-03-22T14:02:44.671Z,202
2023-03-22T14:03:53.855Z,213
2023-03-22T14:05:03.021Z,219
2023-03-22T14:06:12.205Z,219
2023-03-22T14:07:21.363Z,208
2023-03-22T14:09:39.709Z,185
2023-03-22T14:10:48.878Z,202
2023-03-22T14:11:58.053Z,219
2023-03-22T14:13:07.221Z,241
2023-03-22T14:14:15.416Z,236
2023-03-22T14:15:24.592Z,219
2023-03-22T14:16:33.759Z,213
2023-03-22T14:17:42.922Z,213
2023-03-22T14:18:52.100Z,213
2023-03-22T14:20:01.279Z,213
2023-03-22T14:21:10.454Z,196
2023-03-22T14:52:13.184Z,95
2023-03-22T14:54:31.534Z,95
2023-03-22T14:55:40.711Z,90
2023-03-22T14:56:49.886Z,78
2023-03-22T14:57:58.087Z,78
2023-03-22T15:00:16.414Z,73
2023-03-22T15:01:25.580Z,73
2023-03-22T15:02:34.754Z,67
2023-03-22T15:03:43.927Z,67
2023-03-22T15:04:53.165Z,67
2023-03-22T15:06:02.283Z,67
2023-03-22T15:07:11.573Z,61
2023-03-22T15:08:20.646Z,61
2023-03-22T15:09:29.912Z,61
2023-03-22T15:10:39.123Z,67
2023-03-22T15:11:48.155Z,67
2023-03-22T15:12:56.396Z,61
2023-03-22T15:15:14.663Z,50
2023-03-22T15:16:22.991Z,56
2023-03-22T15:17:31.221Z,56
2023-03-22T15:18:40.420Z,50
2023-03-22T15:19:49.587Z,50
2023-03-22T15:20:58.669Z,45
2023-03-22T15:22:07.910Z,45
2023-03-22T15:23:17.005Z,39
2023-03-22T15:24:26.232Z,39
2023-03-22T15:25:35.389Z,39
2023-03-22T15:26:44.646Z,39
2023-03-22T15:27:53.677Z,39
2023-03-22T15:29:01.809Z,45
2023-03-22T15:30:10.146Z,45
2023-03-22T15:32:28.465Z,45
2023-03-22T15:33:37.649Z,45
2023-03-22T15:34:46.841Z,45
2023-03-22T15:35:56.046Z,45
2023-03-22T15:37:05.185Z,45
2023-03-22T15:38:14.367Z,45
2023-03-22T15:39:23.535Z,50
2023-03-22T15:40:32.706Z,50
2023-03-22T15:41:41.704Z,56
2023-03-22T15:42:50.888Z,56
2023-03-22T15:44:00.249Z,61
2023-03-22T15:45:08.363Z,61
2023-03-22T15:46:17.606Z,61
2023-03-22T15:47:26.735Z,61
2023-03-22T15:48:35.932Z,61
2023-03-22T15:49:45.092Z,67
2023-03-22T15:50:54.320Z,67
2023-03-22T15:52:03.409Z,67
2023-03-22T15:53:12.462Z,67
2023-03-22T15:54:20.743Z,73
2023-03-22T15:55:29.002Z,73
2023-03-22T15:56:38.190Z,73
2023-03-22T15:57:47.365Z,78
2023-03-22T15:58:56.537Z,78
2023-03-22T16:00:05.537Z,73
2023-03-22T16:01:14.908Z,73
2023-03-22T16:02:23.111Z,73
2023-03-22T16:03:31.078Z,78
2023-03-22T16:04:40.434Z,95
2023-03-22T16:05:49.608Z,90
2023-03-22T16:06:58.780Z,78
2023-03-22T16:08:07.938Z,73
2023-03-22T16:09:17.115Z,73
2023-03-22T16:10:26.283Z,61
2023-03-22T16:11:35.437Z,56
2023-03-22T16:12:44.641Z,56
2023-03-22T16:13:53.856Z,61
2023-03-22T16:15:02.991Z,56
2023-03-22T16:16:11.980Z,56
2023-03-22T16:17:21.310Z,50
2023-03-22T16:18:29.327Z,50
2023-03-22T16:19:38.705Z,50
2023-03-22T16:20:47.695Z,50
2023-03-22T16:21:56.882Z,50
2023-03-22T16:23:06.036Z,50
2023-03-22T16:24:15.211Z,56
2023-03-22T16:25:24.423Z,61
2023-03-22T16:26:32.577Z,61
2023-03-22T16:27:40.987Z,56
2023-03-22T16:28:48.935Z,45
2023-03-22T16:29:57.232Z,45
2023-03-22T16:31:06.496Z,39
2023-03-22T16:32:15.622Z,39
2023-03-22T16:33:24.775Z,39
2023-03-22T16:34:34.009Z,39
2023-03-22T16:35:43.041Z,39
2023-03-22T16:36:52.361Z,33
2023-03-22T16:38:01.493Z,33
2023-03-22T16:39:10.674Z,28
2023-03-22T16:40:19.723Z,28
2023-03-22T16:41:29.028Z,28
2023-03-22T16:42:38.205Z,28
2023-03-22T16:43:47.421Z,28
2023-03-22T16:44:55.505Z,28
2023-03-22T16:46:04.592Z,33
2023-03-22T16:47:13.926Z,33
2023-03-22T16:48:23.074Z,33
2023-03-22T16:49:32.291Z,33
2023-03-22T16:50:41.352Z,39
2023-03-22T16:51:50.508Z,39
2023-03-22T16:52:58.797Z,39
2023-03-22T16:54:06.860Z,39
2023-03-22T16:55:15.974Z,39
2023-03-22T16:56:25.329Z,39
2023-03-22T16:57:33.509Z,33
2023-03-22T16:58:41.699Z,28
2023-03-22T17:00:59.929Z,28
2023-03-22T17:02:08.216Z,28
2023-03-22T17:03:17.372Z,28
2023-03-22T17:04:26.578Z,28
2023-03-22T17:05:35.777Z,28
2023-03-22T17:06:44.928Z,28
2023-03-22T17:07:53.932Z,28
2023-03-22T17:09:03.321Z,22
2023-03-22T17:10:12.454Z,22
2023-03-22T17:11:21.658Z,22
2023-03-22T17:12:30.741Z,22
2023-03-22T17:13:40.281Z,22
2023-03-22T17:14:49.134Z,22
2023-03-22T17:15:58.132Z,22
2023-03-22T17:17:06.513Z,16
2023-03-22T17:18:15.494Z,16
2023-03-22T17:19:24.854Z,11
2023-03-22T17:20:33.837Z,11